sensor_id;sensor_type;location;lat;lon;timestamp;P1;durP1;ratioP1;P2;durP2;ratioP2
25846;SDS011;13676;50.168;8.568;2022-11-15T00:01:22;10.85;;;6.55;;
25846;SDS011;13676;50.168;8.568;2022-11-15T00:03:50;10.60;;;6.93;;
25846;SDS011;13676;50.168;8.568;2022-11-15T00:06:16;8.80;;;6.22;;
25846;SDS011;13676;50.168;8.568;2022-11-15T00:08:41;9.75;;;6.40;;
25846;SDS011;13676;50.168;8.568;2022-11-15T00:11:08;9.75;;;5.88;;
25846;SDS011;13676;50.168;8.568;2022-11-15T00:13:35;9.07;;;6.53;;
25846;SDS011;13676;50.168;8.568;2022-11-15T00:16:01;10.13;;;6.32;;
25846;SDS011;13676;50.168;8.568;2022-11-15T00:18:27;8.55;;;6.20;;
25846;SDS011;13676;50.168;8.568;2022-11-15T00:20:53;9.10;;;6.25;;
25846;SDS011;13676;50.168;8.568;2022-11-15T00:23:18;9.82;;;6.15;;
25846;SDS011;13676;50.168;8.568;2022-11-15T00:25:43;7.10;;;5.70;;
25846;SDS011;13676;50.168;8.568;2022-11-15T00:28:09;8.02;;;6.10;;
25846;SDS011;13676;50.168;8.568;2022-11-15T00:30:34;9.98;;;6.55;;
25846;SDS011;13676;50.168;8.568;2022-11-15T00:33:03;8.38;;;5.70;;
25846;SDS011;13676;50.168;8.568;2022-11-15T00:35:31;8.32;;;5.97;;
25846;SDS011;13676;50.168;8.568;2022-11-15T00:37:58;8.07;;;6.05;;
25846;SDS011;13676;50.168;8.568;2022-11-15T00:40:23;9.60;;;6.00;;
25846;SDS011;13676;50.168;8.568;2022-11-15T00:42:48;8.63;;;5.95;;
25846;SDS011;13676;50.168;8.568;2022-11-15T00:45:14;8.77;;;6.40;;
25846;SDS011;13676;50.168;8.568;2022-11-15T00:47:39;9.73;;;5.32;;
25846;SDS011;13676;50.168;8.568;2022-11-15T00:50:05;8.52;;;6.03;;
25846;SDS011;13676;50.168;8.568;2022-11-15T00:52:30;8.55;;;5.60;;
25846;SDS011;13676;50.168;8.568;2022-11-15T00:54:55;9.50;;;5.32;;
25846;SDS011;13676;50.168;8.568;2022-11-15T00:57:21;6.60;;;5.18;;
25846;SDS011;13676;50.168;8.568;2022-11-15T00:59:46;7.38;;;5.25;;
25846;SDS011;13676;50.168;8.568;2022-11-15T01:02:11;7.43;;;4.82;;
25846;SDS011;13676;50.168;8.568;2022-11-15T01:04:37;8.13;;;5.47;;
25846;SDS011;13676;50.168;8.568;2022-11-15T01:07:02;5.97;;;5.32;;
25846;SDS011;13676;50.168;8.568;2022-11-15T01:09:27;8.32;;;5.47;;
25846;SDS011;13676;50.168;8.568;2022-11-15T01:11:54;7.53;;;5.13;;
25846;SDS011;13676;50.168;8.568;2022-11-15T01:14:19;7.38;;;5.22;;
25846;SDS011;13676;50.168;8.568;2022-11-15T01:16:45;7.55;;;5.28;;
25846;SDS011;13676;50.168;8.568;2022-11-15T01:19:10;6.97;;;5.47;;
25846;SDS011;13676;50.168;8.568;2022-11-15T01:21:35;7.47;;;5.22;;
25846;SDS011;13676;50.168;8.568;2022-11-15T01:24:01;7.40;;;5.22;;
25846;SDS011;13676;50.168;8.568;2022-11-15T01:26:26;7.78;;;5.13;;
25846;SDS011;13676;50.168;8.568;2022-11-15T01:28:52;8.93;;;5.90;;
25846;SDS011;13676;50.168;8.568;2022-11-15T01:31:19;7.93;;;5.80;;
25846;SDS011;13676;50.168;8.568;2022-11-15T01:36:14;6.70;;;5.47;;
25846;SDS011;13676;50.168;8.568;2022-11-15T01:38:41;7.10;;;5.38;;
25846;SDS011;13676;50.168;8.568;2022-11-15T01:41:13;7.82;;;5.55;;
25846;SDS011;13676;50.168;8.568;2022-11-15T01:43:40;6.40;;;5.28;;
25846;SDS011;13676;50.168;8.568;2022-11-15T01:46:09;9.10;;;5.45;;
25846;SDS011;13676;50.168;8.568;2022-11-15T01:48:46;9.15;;;5.53;;
25846;SDS011;13676;50.168;8.568;2022-11-15T01:51:12;8.27;;;5.30;;
25846;SDS011;13676;50.168;8.568;2022-11-15T01:53:39;8.00;;;4.93;;
25846;SDS011;13676;50.168;8.568;2022-11-15T01:56:06;9.07;;;5.60;;
25846;SDS011;13676;50.168;8.568;2022-11-15T01:58:34;8.40;;;5.45;;
25846;SDS011;13676;50.168;8.568;2022-11-15T02:01:00;6.18;;;4.80;;
25846;SDS011;13676;50.168;8.568;2022-11-15T02:03:26;9.07;;;5.30;;
25846;SDS011;13676;50.168;8.568;2022-11-15T02:05:58;7.20;;;5.72;;
25846;SDS011;13676;50.168;8.568;2022-11-15T02:08:24;6.78;;;4.85;;
25846;SDS011;13676;50.168;8.568;2022-11-15T02:10:49;6.43;;;4.93;;
25846;SDS011;13676;50.168;8.568;2022-11-15T02:13:15;8.38;;;5.53;;
25846;SDS011;13676;50.168;8.568;2022-11-15T02:15:44;9.77;;;5.40;;
25846;SDS011;13676;50.168;8.568;2022-11-15T02:18:34;7.50;;;5.30;;
25846;SDS011;13676;50.168;8.568;2022-11-15T02:23:45;7.30;;;4.68;;
25846;SDS011;13676;50.168;8.568;2022-11-15T02:35:16;8.32;;;5.57;;
25846;SDS011;13676;50.168;8.568;2022-11-15T02:37:21;10.30;;;5.53;;
25846;SDS011;13676;50.168;8.568;2022-11-15T02:40:14;8.15;;;5.30;;
25846;SDS011;13676;50.168;8.568;2022-11-15T02:43:04;8.18;;;5.65;;
25846;SDS011;13676;50.168;8.568;2022-11-15T02:45:55;9.52;;;5.78;;
25846;SDS011;13676;50.168;8.568;2022-11-15T02:48:25;7.45;;;5.70;;
25846;SDS011;13676;50.168;8.568;2022-11-15T02:50:51;6.03;;;5.00;;
25846;SDS011;13676;50.168;8.568;2022-11-15T02:53:16;8.95;;;6.07;;
25846;SDS011;13676;50.168;8.568;2022-11-15T02:55:43;7.60;;;5.30;;
25846;SDS011;13676;50.168;8.568;2022-11-15T03:03:47;7.53;;;5.25;;
25846;SDS011;13676;50.168;8.568;2022-11-15T03:06:25;7.65;;;6.05;;
25846;SDS011;13676;50.168;8.568;2022-11-15T03:11:38;9.15;;;5.95;;
25846;SDS011;13676;50.168;8.568;2022-11-15T03:16:57;11.43;;;6.55;;
25846;SDS011;13676;50.168;8.568;2022-11-15T03:19:28;8.98;;;6.10;;
25846;SDS011;13676;50.168;8.568;2022-11-15T03:21:57;7.93;;;5.80;;
25846;SDS011;13676;50.168;8.568;2022-11-15T03:24:25;10.15;;;6.25;;
25846;SDS011;13676;50.168;8.568;2022-11-15T03:26:50;8.73;;;5.80;;
25846;SDS011;13676;50.168;8.568;2022-11-15T03:29:19;8.65;;;5.65;;
25846;SDS011;13676;50.168;8.568;2022-11-15T03:31:49;10.60;;;6.00;;
25846;SDS011;13676;50.168;8.568;2022-11-15T03:36:51;8.35;;;5.93;;
25846;SDS011;13676;50.168;8.568;2022-11-15T03:39:17;9.43;;;5.80;;
25846;SDS011;13676;50.168;8.568;2022-11-15T03:41:46;8.82;;;5.75;;
25846;SDS011;13676;50.168;8.568;2022-11-15T03:44:19;8.25;;;5.50;;
25846;SDS011;13676;50.168;8.568;2022-11-15T03:46:57;6.72;;;5.25;;
25846;SDS011;13676;50.168;8.568;2022-11-15T03:49:27;8.93;;;5.57;;
25846;SDS011;13676;50.168;8.568;2022-11-15T03:51:57;7.80;;;5.50;;
25846;SDS011;13676;50.168;8.568;2022-11-15T03:54:22;10.27;;;6.13;;
25846;SDS011;13676;50.168;8.568;2022-11-15T03:56:48;8.77;;;5.53;;
25846;SDS011;13676;50.168;8.568;2022-11-15T03:59:13;9.95;;;6.13;;
25846;SDS011;13676;50.168;8.568;2022-11-15T04:01:38;7.00;;;5.13;;
25846;SDS011;13676;50.168;8.568;2022-11-15T04:04:04;8.23;;;5.15;;
25846;SDS011;13676;50.168;8.568;2022-11-15T04:06:29;6.63;;;5.22;;
25846;SDS011;13676;50.168;8.568;2022-11-15T04:08:55;8.45;;;5.93;;
25846;SDS011;13676;50.168;8.568;2022-11-15T04:11:20;6.78;;;5.10;;
25846;SDS011;13676;50.168;8.568;2022-11-15T04:13:45;9.82;;;5.50;;
25846;SDS011;13676;50.168;8.568;2022-11-15T04:16:11;8.75;;;5.63;;
25846;SDS011;13676;50.168;8.568;2022-11-15T04:18:36;6.88;;;5.22;;
25846;SDS011;13676;50.168;8.568;2022-11-15T04:21:02;7.15;;;5.10;;
25846;SDS011;13676;50.168;8.568;2022-11-15T04:23:46;7.60;;;5.20;;
25846;SDS011;13676;50.168;8.568;2022-11-15T04:26:29;8.15;;;5.32;;
25846;SDS011;13676;50.168;8.568;2022-11-15T04:28:54;7.18;;;5.32;;
25846;SDS011;13676;50.168;8.568;2022-11-15T04:31:38;6.47;;;5.05;;
25846;SDS011;13676;50.168;8.568;2022-11-15T04:34:03;9.32;;;5.38;;
25846;SDS011;13676;50.168;8.568;2022-11-15T04:36:29;7.68;;;4.88;;
25846;SDS011;13676;50.168;8.568;2022-11-15T04:39:13;9.73;;;5.32;;
25846;SDS011;13676;50.168;8.568;2022-11-15T04:41:38;7.22;;;4.93;;
25846;SDS011;13676;50.168;8.568;2022-11-15T04:44:03;8.80;;;5.30;;
25846;SDS011;13676;50.168;8.568;2022-11-15T04:46:29;6.32;;;4.75;;
25846;SDS011;13676;50.168;8.568;2022-11-15T04:48:54;6.75;;;5.15;;
25846;SDS011;13676;50.168;8.568;2022-11-15T04:51:20;9.30;;;5.25;;
25846;SDS011;13676;50.168;8.568;2022-11-15T04:53:45;8.93;;;5.55;;
25846;SDS011;13676;50.168;8.568;2022-11-15T04:56:11;6.82;;;4.82;;
25846;SDS011;13676;50.168;8.568;2022-11-15T04:58:36;7.45;;;5.13;;
25846;SDS011;13676;50.168;8.568;2022-11-15T05:01:12;6.88;;;5.35;;
25846;SDS011;13676;50.168;8.568;2022-11-15T05:03:39;7.75;;;5.68;;
25846;SDS011;13676;50.168;8.568;2022-11-15T05:06:24;10.80;;;5.72;;
25846;SDS011;13676;50.168;8.568;2022-11-15T05:08:50;7.82;;;5.53;;
25846;SDS011;13676;50.168;8.568;2022-11-15T05:11:15;6.25;;;4.65;;
25846;SDS011;13676;50.168;8.568;2022-11-15T05:13:41;9.40;;;5.70;;
25846;SDS011;13676;50.168;8.568;2022-11-15T05:16:06;5.53;;;4.45;;
25846;SDS011;13676;50.168;8.568;2022-11-15T05:18:31;8.55;;;5.18;;
25846;SDS011;13676;50.168;8.568;2022-11-15T05:21:02;6.80;;;4.95;;
25846;SDS011;13676;50.168;8.568;2022-11-15T05:23:29;5.43;;;4.80;;
25846;SDS011;13676;50.168;8.568;2022-11-15T05:25:58;6.57;;;5.03;;
25846;SDS011;13676;50.168;8.568;2022-11-15T05:28:24;7.85;;;5.07;;
25846;SDS011;13676;50.168;8.568;2022-11-15T05:30:49;7.13;;;4.90;;
25846;SDS011;13676;50.168;8.568;2022-11-15T05:33:14;7.50;;;5.32;;
25846;SDS011;13676;50.168;8.568;2022-11-15T05:35:41;8.93;;;5.50;;
25846;SDS011;13676;50.168;8.568;2022-11-15T05:38:07;7.82;;;5.60;;
25846;SDS011;13676;50.168;8.568;2022-11-15T05:40:33;9.95;;;5.90;;
25846;SDS011;13676;50.168;8.568;2022-11-15T05:42:59;6.18;;;4.63;;
25846;SDS011;13676;50.168;8.568;2022-11-15T05:45:25;10.07;;;5.22;;
25846;SDS011;13676;50.168;8.568;2022-11-15T05:47:51;8.45;;;5.03;;
25846;SDS011;13676;50.168;8.568;2022-11-15T05:50:17;8.43;;;5.43;;
25846;SDS011;13676;50.168;8.568;2022-11-15T05:52:43;8.45;;;5.43;;
25846;SDS011;13676;50.168;8.568;2022-11-15T05:55:09;7.25;;;5.40;;
25846;SDS011;13676;50.168;8.568;2022-11-15T05:57:34;7.32;;;5.53;;
25846;SDS011;13676;50.168;8.568;2022-11-15T06:00:00;7.03;;;5.43;;
25846;SDS011;13676;50.168;8.568;2022-11-15T06:02:26;8.50;;;5.22;;
25846;SDS011;13676;50.168;8.568;2022-11-15T06:04:51;7.10;;;5.03;;
25846;SDS011;13676;50.168;8.568;2022-11-15T06:07:17;7.60;;;5.50;;
25846;SDS011;13676;50.168;8.568;2022-11-15T06:09:42;7.35;;;4.97;;
25846;SDS011;13676;50.168;8.568;2022-11-15T06:12:07;7.25;;;5.10;;
25846;SDS011;13676;50.168;8.568;2022-11-15T06:14:32;9.25;;;5.95;;
25846;SDS011;13676;50.168;8.568;2022-11-15T06:16:58;10.20;;;5.43;;
25846;SDS011;13676;50.168;8.568;2022-11-15T06:19:23;11.60;;;5.45;;
25846;SDS011;13676;50.168;8.568;2022-11-15T06:21:49;6.50;;;5.10;;
25846;SDS011;13676;50.168;8.568;2022-11-15T06:24:14;9.40;;;6.70;;
25846;SDS011;13676;50.168;8.568;2022-11-15T06:26:39;8.77;;;5.88;;
25846;SDS011;13676;50.168;8.568;2022-11-15T06:29:05;7.72;;;5.45;;
25846;SDS011;13676;50.168;8.568;2022-11-15T06:31:30;8.30;;;5.50;;
25846;SDS011;13676;50.168;8.568;2022-11-15T06:33:55;8.05;;;5.43;;
25846;SDS011;13676;50.168;8.568;2022-11-15T06:36:21;8.10;;;5.88;;
25846;SDS011;13676;50.168;8.568;2022-11-15T06:38:46;8.07;;;5.22;;
25846;SDS011;13676;50.168;8.568;2022-11-15T06:41:12;7.05;;;4.97;;
25846;SDS011;13676;50.168;8.568;2022-11-15T06:43:39;7.60;;;4.78;;
25846;SDS011;13676;50.168;8.568;2022-11-15T06:46:05;9.13;;;5.40;;
25846;SDS011;13676;50.168;8.568;2022-11-15T06:48:31;7.90;;;5.05;;
25846;SDS011;13676;50.168;8.568;2022-11-15T06:50:58;7.82;;;5.05;;
25846;SDS011;13676;50.168;8.568;2022-11-15T06:53:25;6.60;;;4.67;;
25846;SDS011;13676;50.168;8.568;2022-11-15T06:55:51;7.10;;;4.70;;
25846;SDS011;13676;50.168;8.568;2022-11-15T06:58:16;6.70;;;4.45;;
25846;SDS011;13676;50.168;8.568;2022-11-15T07:00:42;7.55;;;5.10;;
25846;SDS011;13676;50.168;8.568;2022-11-15T07:03:08;8.48;;;5.28;;
25846;SDS011;13676;50.168;8.568;2022-11-15T07:05:33;7.35;;;5.10;;
25846;SDS011;13676;50.168;8.568;2022-11-15T07:07:59;7.38;;;5.00;;
25846;SDS011;13676;50.168;8.568;2022-11-15T07:10:25;7.13;;;5.07;;
25846;SDS011;13676;50.168;8.568;2022-11-15T07:12:51;7.03;;;5.28;;
25846;SDS011;13676;50.168;8.568;2022-11-15T07:15:17;6.82;;;4.78;;
25846;SDS011;13676;50.168;8.568;2022-11-15T07:17:43;7.38;;;4.90;;
25846;SDS011;13676;50.168;8.568;2022-11-15T07:20:09;8.75;;;5.43;;
25846;SDS011;13676;50.168;8.568;2022-11-15T07:22:35;5.93;;;4.40;;
25846;SDS011;13676;50.168;8.568;2022-11-15T07:25:00;5.78;;;4.57;;
25846;SDS011;13676;50.168;8.568;2022-11-15T07:27:25;6.97;;;4.80;;
25846;SDS011;13676;50.168;8.568;2022-11-15T07:29:50;7.13;;;4.70;;
25846;SDS011;13676;50.168;8.568;2022-11-15T07:32:16;9.23;;;5.55;;
25846;SDS011;13676;50.168;8.568;2022-11-15T07:34:41;11.18;;;5.47;;
25846;SDS011;13676;50.168;8.568;2022-11-15T07:37:06;9.52;;;5.25;;
25846;SDS011;13676;50.168;8.568;2022-11-15T07:39:32;7.05;;;5.10;;
25846;SDS011;13676;50.168;8.568;2022-11-15T07:41:58;12.10;;;6.00;;
25846;SDS011;13676;50.168;8.568;2022-11-15T07:44:45;9.25;;;4.82;;
25846;SDS011;13676;50.168;8.568;2022-11-15T07:47:11;7.45;;;5.10;;
25846;SDS011;13676;50.168;8.568;2022-11-15T07:49:36;7.28;;;5.20;;
25846;SDS011;13676;50.168;8.568;2022-11-15T07:52:02;8.93;;;5.63;;
25846;SDS011;13676;50.168;8.568;2022-11-15T07:54:27;8.75;;;5.47;;
25846;SDS011;13676;50.168;8.568;2022-11-15T07:56:53;6.30;;;5.03;;
25846;SDS011;13676;50.168;8.568;2022-11-15T07:59:18;7.85;;;5.20;;
25846;SDS011;13676;50.168;8.568;2022-11-15T08:01:44;6.90;;;4.88;;
25846;SDS011;13676;50.168;8.568;2022-11-15T08:04:10;7.25;;;4.75;;
25846;SDS011;13676;50.168;8.568;2022-11-15T08:06:36;10.02;;;5.18;;
25846;SDS011;13676;50.168;8.568;2022-11-15T08:09:01;6.78;;;4.80;;
25846;SDS011;13676;50.168;8.568;2022-11-15T08:11:26;6.13;;;4.50;;
25846;SDS011;13676;50.168;8.568;2022-11-15T08:13:52;7.95;;;4.38;;
25846;SDS011;13676;50.168;8.568;2022-11-15T08:16:17;7.05;;;4.50;;
25846;SDS011;13676;50.168;8.568;2022-11-15T08:18:42;6.22;;;4.50;;
25846;SDS011;13676;50.168;8.568;2022-11-15T08:21:08;7.07;;;4.65;;
25846;SDS011;13676;50.168;8.568;2022-11-15T08:23:34;8.55;;;4.68;;
25846;SDS011;13676;50.168;8.568;2022-11-15T08:26:01;6.00;;;4.30;;
25846;SDS011;13676;50.168;8.568;2022-11-15T08:28:27;7.63;;;4.47;;
25846;SDS011;13676;50.168;8.568;2022-11-15T08:30:53;7.13;;;5.38;;
25846;SDS011;13676;50.168;8.568;2022-11-15T08:33:18;7.50;;;5.05;;
25846;SDS011;13676;50.168;8.568;2022-11-15T08:35:43;7.40;;;5.13;;
25846;SDS011;13676;50.168;8.568;2022-11-15T08:38:09;7.97;;;4.97;;
25846;SDS011;13676;50.168;8.568;2022-11-15T08:40:35;7.50;;;4.88;;
25846;SDS011;13676;50.168;8.568;2022-11-15T08:43:00;7.65;;;5.18;;
25846;SDS011;13676;50.168;8.568;2022-11-15T08:45:27;5.60;;;4.33;;
25846;SDS011;13676;50.168;8.568;2022-11-15T08:47:55;7.65;;;4.43;;
25846;SDS011;13676;50.168;8.568;2022-11-15T08:50:21;8.00;;;5.05;;
25846;SDS011;13676;50.168;8.568;2022-11-15T08:52:47;9.25;;;4.75;;
25846;SDS011;13676;50.168;8.568;2022-11-15T08:55:13;7.30;;;4.43;;
25846;SDS011;13676;50.168;8.568;2022-11-15T08:57:39;8.43;;;4.80;;
25846;SDS011;13676;50.168;8.568;2022-11-15T09:00:05;7.13;;;4.18;;
25846;SDS011;13676;50.168;8.568;2022-11-15T09:02:31;6.68;;;4.53;;
25846;SDS011;13676;50.168;8.568;2022-11-15T09:04:56;7.65;;;4.82;;
25846;SDS011;13676;50.168;8.568;2022-11-15T09:07:21;7.20;;;5.03;;
25846;SDS011;13676;50.168;8.568;2022-11-15T09:09:47;8.35;;;5.53;;
25846;SDS011;13676;50.168;8.568;2022-11-15T09:12:12;9.70;;;6.18;;
25846;SDS011;13676;50.168;8.568;2022-11-15T09:14:38;7.18;;;5.78;;
25846;SDS011;13676;50.168;8.568;2022-11-15T09:17:03;7.68;;;4.63;;
25846;SDS011;13676;50.168;8.568;2022-11-15T09:19:32;7.22;;;5.32;;
25846;SDS011;13676;50.168;8.568;2022-11-15T09:21:57;7.90;;;5.20;;
25846;SDS011;13676;50.168;8.568;2022-11-15T09:24:23;8.23;;;5.03;;
25846;SDS011;13676;50.168;8.568;2022-11-15T09:26:49;8.70;;;5.38;;
25846;SDS011;13676;50.168;8.568;2022-11-15T09:29:15;8.15;;;5.53;;
25846;SDS011;13676;50.168;8.568;2022-11-15T09:31:41;7.05;;;5.25;;
25846;SDS011;13676;50.168;8.568;2022-11-15T09:34:06;7.95;;;5.35;;
25846;SDS011;13676;50.168;8.568;2022-11-15T09:36:32;7.35;;;5.38;;
25846;SDS011;13676;50.168;8.568;2022-11-15T09:38:57;7.43;;;5.60;;
25846;SDS011;13676;50.168;8.568;2022-11-15T09:41:33;6.68;;;5.50;;
25846;SDS011;13676;50.168;8.568;2022-11-15T09:49:55;8.35;;;6.57;;
25846;SDS011;13676;50.168;8.568;2022-11-15T09:52:24;9.02;;;6.95;;
25846;SDS011;13676;50.168;8.568;2022-11-15T09:54:50;7.43;;;6.05;;
25846;SDS011;13676;50.168;8.568;2022-11-15T10:04:54;10.02;;;6.68;;
25846;SDS011;13676;50.168;8.568;2022-11-15T10:10:27;9.93;;;7.13;;
25846;SDS011;13676;50.168;8.568;2022-11-15T10:12:57;7.15;;;5.97;;
25846;SDS011;13676;50.168;8.568;2022-11-15T10:15:22;8.45;;;5.40;;
25846;SDS011;13676;50.168;8.568;2022-11-15T10:20:46;8.10;;;6.18;;
25846;SDS011;13676;50.168;8.568;2022-11-15T10:23:22;9.30;;;5.97;;
25846;SDS011;13676;50.168;8.568;2022-11-15T10:25:50;8.82;;;5.57;;
25846;SDS011;13676;50.168;8.568;2022-11-15T10:28:18;8.77;;;5.60;;
25846;SDS011;13676;50.168;8.568;2022-11-15T10:30:58;8.85;;;6.15;;
25846;SDS011;13676;50.168;8.568;2022-11-15T10:33:27;10.05;;;6.68;;
25846;SDS011;13676;50.168;8.568;2022-11-15T10:41:13;11.00;;;6.43;;
25846;SDS011;13676;50.168;8.568;2022-11-15T10:43:40;8.85;;;6.80;;
25846;SDS011;13676;50.168;8.568;2022-11-15T10:46:25;9.82;;;5.93;;
25846;SDS011;13676;50.168;8.568;2022-11-15T10:48:50;8.07;;;5.50;;
25846;SDS011;13676;50.168;8.568;2022-11-15T10:51:20;8.10;;;5.90;;
25846;SDS011;13676;50.168;8.568;2022-11-15T10:53:47;7.38;;;5.50;;
25846;SDS011;13676;50.168;8.568;2022-11-15T10:56:14;13.35;;;8.35;;
25846;SDS011;13676;50.168;8.568;2022-11-15T11:01:44;9.55;;;6.78;;
25846;SDS011;13676;50.168;8.568;2022-11-15T11:06:24;9.40;;;6.63;;
25846;SDS011;13676;50.168;8.568;2022-11-15T11:08:54;9.02;;;6.45;;
25846;SDS011;13676;50.168;8.568;2022-11-15T11:11:21;9.02;;;5.93;;
25846;SDS011;13676;50.168;8.568;2022-11-15T11:13:47;11.15;;;6.22;;
25846;SDS011;13676;50.168;8.568;2022-11-15T11:24:41;8.30;;;5.95;;
25846;SDS011;13676;50.168;8.568;2022-11-15T11:38:17;8.30;;;6.15;;
25846;SDS011;13676;50.168;8.568;2022-11-15T11:41:01;8.80;;;6.38;;
25846;SDS011;13676;50.168;8.568;2022-11-15T11:48:57;9.00;;;5.78;;
25846;SDS011;13676;50.168;8.568;2022-11-15T11:51:34;7.53;;;4.97;;
25846;SDS011;13676;50.168;8.568;2022-11-15T11:54:14;6.50;;;4.95;;
25846;SDS011;13676;50.168;8.568;2022-11-15T11:56:47;6.90;;;5.05;;
25846;SDS011;13676;50.168;8.568;2022-11-15T11:59:33;10.07;;;5.82;;
25846;SDS011;13676;50.168;8.568;2022-11-15T12:02:01;8.75;;;5.80;;
25846;SDS011;13676;50.168;8.568;2022-11-15T12:04:37;10.25;;;5.70;;
25846;SDS011;13676;50.168;8.568;2022-11-15T12:15:03;7.97;;;5.03;;
25846;SDS011;13676;50.168;8.568;2022-11-15T12:17:34;6.45;;;4.35;;
25846;SDS011;13676;50.168;8.568;2022-11-15T12:20:04;5.35;;;4.38;;
25846;SDS011;13676;50.168;8.568;2022-11-15T12:22:43;5.95;;;4.40;;
25846;SDS011;13676;50.168;8.568;2022-11-15T12:25:21;7.10;;;4.38;;
25846;SDS011;13676;50.168;8.568;2022-11-15T12:30:44;6.25;;;4.10;;
25846;SDS011;13676;50.168;8.568;2022-11-15T12:36:01;7.53;;;5.28;;
25846;SDS011;13676;50.168;8.568;2022-11-15T12:41:22;7.85;;;4.95;;
25846;SDS011;13676;50.168;8.568;2022-11-15T12:43:49;6.30;;;4.45;;
25846;SDS011;13676;50.168;8.568;2022-11-15T12:48:59;7.13;;;5.35;;
25846;SDS011;13676;50.168;8.568;2022-11-15T13:22:39;4.85;;;3.97;;
25846;SDS011;13676;50.168;8.568;2022-11-15T13:25:37;7.72;;;4.30;;
25846;SDS011;13676;50.168;8.568;2022-11-15T13:30:33;5.68;;;3.78;;
25846;SDS011;13676;50.168;8.568;2022-11-15T13:33:00;8.40;;;4.60;;
25846;SDS011;13676;50.168;8.568;2022-11-15T13:35:41;7.50;;;4.50;;
25846;SDS011;13676;50.168;8.568;2022-11-15T13:38:16;4.93;;;3.88;;
25846;SDS011;13676;50.168;8.568;2022-11-15T13:40:45;5.43;;;4.03;;
25846;SDS011;13676;50.168;8.568;2022-11-15T13:43:23;8.10;;;4.53;;
25846;SDS011;13676;50.168;8.568;2022-11-15T13:46:12;7.05;;;4.32;;
25846;SDS011;13676;50.168;8.568;2022-11-15T13:48:46;7.75;;;4.68;;
25846;SDS011;13676;50.168;8.568;2022-11-15T13:54:22;5.90;;;4.63;;
25846;SDS011;13676;50.168;8.568;2022-11-15T13:56:49;9.40;;;4.82;;
25846;SDS011;13676;50.168;8.568;2022-11-15T13:59:27;5.88;;;3.83;;
25846;SDS011;13676;50.168;8.568;2022-11-15T14:01:55;5.43;;;4.15;;
25846;SDS011;13676;50.168;8.568;2022-11-15T14:04:22;6.55;;;4.00;;
25846;SDS011;13676;50.168;8.568;2022-11-15T14:06:51;4.40;;;3.38;;
25846;SDS011;13676;50.168;8.568;2022-11-15T14:12:00;5.47;;;3.70;;
25846;SDS011;13676;50.168;8.568;2022-11-15T14:14:27;4.75;;;3.85;;
25846;SDS011;13676;50.168;8.568;2022-11-15T14:16:54;5.03;;;3.70;;
25846;SDS011;13676;50.168;8.568;2022-11-15T14:24:40;5.85;;;3.80;;
25846;SDS011;13676;50.168;8.568;2022-11-15T14:29:54;6.53;;;4.28;;
25846;SDS011;13676;50.168;8.568;2022-11-15T14:34:47;6.75;;;4.18;;
25846;SDS011;13676;50.168;8.568;2022-11-15T14:39:53;5.35;;;4.13;;
25846;SDS011;13676;50.168;8.568;2022-11-15T14:42:19;8.80;;;4.15;;
25846;SDS011;13676;50.168;8.568;2022-11-15T14:44:47;5.85;;;4.32;;
25846;SDS011;13676;50.168;8.568;2022-11-15T14:47:12;6.55;;;4.43;;
25846;SDS011;13676;50.168;8.568;2022-11-15T14:49:38;5.63;;;4.45;;
25846;SDS011;13676;50.168;8.568;2022-11-15T14:52:22;8.07;;;4.30;;
25846;SDS011;13676;50.168;8.568;2022-11-15T14:54:49;7.28;;;3.90;;
25846;SDS011;13676;50.168;8.568;2022-11-15T14:57:15;6.75;;;4.10;;
25846;SDS011;13676;50.168;8.568;2022-11-15T14:59:40;7.22;;;4.13;;
25846;SDS011;13676;50.168;8.568;2022-11-15T15:02:12;6.00;;;3.90;;
25846;SDS011;13676;50.168;8.568;2022-11-15T15:04:43;9.27;;;4.20;;
25846;SDS011;13676;50.168;8.568;2022-11-15T15:07:08;5.97;;;3.97;;
25846;SDS011;13676;50.168;8.568;2022-11-15T15:09:34;5.18;;;3.90;;
25846;SDS011;13676;50.168;8.568;2022-11-15T15:11:59;6.00;;;3.70;;
25846;SDS011;13676;50.168;8.568;2022-11-15T15:14:24;5.68;;;3.80;;
25846;SDS011;13676;50.168;8.568;2022-11-15T15:16:50;6.20;;;4.40;;
25846;SDS011;13676;50.168;8.568;2022-11-15T15:19:15;4.68;;;3.47;;
25846;SDS011;13676;50.168;8.568;2022-11-15T15:21:41;5.97;;;4.10;;
25846;SDS011;13676;50.168;8.568;2022-11-15T15:24:07;4.65;;;3.58;;
25846;SDS011;13676;50.168;8.568;2022-11-15T15:26:37;5.38;;;3.88;;
25846;SDS011;13676;50.168;8.568;2022-11-15T15:29:04;5.18;;;4.35;;
25846;SDS011;13676;50.168;8.568;2022-11-15T15:31:29;6.63;;;4.57;;
25846;SDS011;13676;50.168;8.568;2022-11-15T15:33:54;7.43;;;5.00;;
25846;SDS011;13676;50.168;8.568;2022-11-15T15:36:20;9.00;;;4.78;;
25846;SDS011;13676;50.168;8.568;2022-11-15T15:38:45;8.63;;;4.55;;
25846;SDS011;13676;50.168;8.568;2022-11-15T15:41:12;6.78;;;4.65;;
25846;SDS011;13676;50.168;8.568;2022-11-15T15:43:38;8.57;;;5.78;;
25846;SDS011;13676;50.168;8.568;2022-11-15T15:46:04;6.32;;;5.15;;
25846;SDS011;13676;50.168;8.568;2022-11-15T15:48:30;6.75;;;4.88;;
25846;SDS011;13676;50.168;8.568;2022-11-15T15:50:55;7.25;;;4.82;;
25846;SDS011;13676;50.168;8.568;2022-11-15T15:53:20;5.72;;;4.22;;
25846;SDS011;13676;50.168;8.568;2022-11-15T15:55:46;6.68;;;4.15;;
25846;SDS011;13676;50.168;8.568;2022-11-15T15:58:11;8.40;;;4.60;;
25846;SDS011;13676;50.168;8.568;2022-11-15T16:00:36;7.63;;;4.30;;
25846;SDS011;13676;50.168;8.568;2022-11-15T16:03:02;6.13;;;3.83;;
25846;SDS011;13676;50.168;8.568;2022-11-15T16:05:27;7.05;;;3.88;;
25846;SDS011;13676;50.168;8.568;2022-11-15T16:07:53;5.57;;;4.22;;
25846;SDS011;13676;50.168;8.568;2022-11-15T16:10:23;6.10;;;4.07;;
25846;SDS011;13676;50.168;8.568;2022-11-15T16:13:01;6.00;;;3.05;;
25846;SDS011;13676;50.168;8.568;2022-11-15T16:15:29;7.78;;;4.32;;
25846;SDS011;13676;50.168;8.568;2022-11-15T16:17:56;7.45;;;4.50;;
25846;SDS011;13676;50.168;8.568;2022-11-15T16:22:57;4.32;;;3.58;;
25846;SDS011;13676;50.168;8.568;2022-11-15T16:25:23;6.50;;;3.72;;
25846;SDS011;13676;50.168;8.568;2022-11-15T16:27:48;5.88;;;3.30;;
25846;SDS011;13676;50.168;8.568;2022-11-15T16:30:14;6.28;;;3.42;;
25846;SDS011;13676;50.168;8.568;2022-11-15T16:32:40;4.55;;;3.92;;
25846;SDS011;13676;50.168;8.568;2022-11-15T16:35:06;5.20;;;3.45;;
25846;SDS011;13676;50.168;8.568;2022-11-15T16:37:35;4.00;;;3.15;;
25846;SDS011;13676;50.168;8.568;2022-11-15T16:40:00;7.30;;;3.47;;
25846;SDS011;13676;50.168;8.568;2022-11-15T16:42:26;6.72;;;3.20;;
25846;SDS011;13676;50.168;8.568;2022-11-15T16:44:51;5.90;;;3.10;;
25846;SDS011;13676;50.168;8.568;2022-11-15T16:47:19;8.63;;;5.90;;
25846;SDS011;13676;50.168;8.568;2022-11-15T16:49:45;8.38;;;5.03;;
25846;SDS011;13676;50.168;8.568;2022-11-15T16:52:11;5.40;;;4.15;;
25846;SDS011;13676;50.168;8.568;2022-11-15T16:54:36;7.18;;;4.10;;
25846;SDS011;13676;50.168;8.568;2022-11-15T16:57:02;6.28;;;3.40;;
25846;SDS011;13676;50.168;8.568;2022-11-15T16:59:27;4.22;;;3.30;;
25846;SDS011;13676;50.168;8.568;2022-11-15T17:01:52;5.20;;;3.47;;
25846;SDS011;13676;50.168;8.568;2022-11-15T17:04:18;5.63;;;3.72;;
25846;SDS011;13676;50.168;8.568;2022-11-15T17:06:47;4.55;;;3.40;;
25846;SDS011;13676;50.168;8.568;2022-11-15T17:11:44;5.70;;;3.55;;
25846;SDS011;13676;50.168;8.568;2022-11-15T17:14:10;5.75;;;3.00;;
25846;SDS011;13676;50.168;8.568;2022-11-15T17:16:36;4.25;;;3.17;;
25846;SDS011;13676;50.168;8.568;2022-11-15T17:19:06;4.47;;;3.10;;
25846;SDS011;13676;50.168;8.568;2022-11-15T17:21:36;5.25;;;3.65;;
25846;SDS011;13676;50.168;8.568;2022-11-15T17:24:01;4.53;;;3.30;;
25846;SDS011;13676;50.168;8.568;2022-11-15T17:26:26;7.75;;;3.70;;
25846;SDS011;13676;50.168;8.568;2022-11-15T17:28:55;6.13;;;3.80;;
25846;SDS011;13676;50.168;8.568;2022-11-15T17:31:25;5.45;;;3.33;;